createdAt,value
2018-11-14T00:01:14.346Z,7.80
2018-11-14T00:03:45.118Z,7.80
2018-11-14T00:06:15.438Z,7.70
2018-11-14T00:08:45.956Z,7.70
2018-11-14T00:11:17.103Z,7.60
2018-11-14T00:13:47.917Z,7.60
2018-11-14T00:16:18.207Z,7.60
2018-11-14T00:18:48.963Z,7.70
2018-11-14T00:21:19.432Z,7.70
2018-11-14T00:23:49.923Z,7.70
2018-11-14T00:26:20.424Z,7.70
2018-11-14T00:28:51.425Z,7.70
2018-11-14T00:31:21.344Z,7.60
2018-11-14T00:33:52.487Z,7.60
2018-11-14T00:36:23.320Z,7.50
2018-11-14T00:38:52.781Z,7.50
2018-11-14T00:41:22.992Z,7.40
2018-11-14T00:43:52.783Z,7.40
2018-11-14T00:46:23.028Z,7.30
2018-11-14T00:48:53.619Z,7.30
2018-11-14T00:51:24.669Z,7.20
2018-11-14T00:53:54.623Z,7.20
2018-11-14T00:56:25.122Z,7.20
2018-11-14T00:58:54.570Z,7.10
2018-11-14T01:01:25.695Z,7.10
2018-11-14T01:03:56.518Z,7.00
2018-11-14T01:06:27.016Z,7.00
2018-11-14T01:08:57.329Z,6.80
2018-11-14T01:11:28.351Z,6.80
2018-11-14T01:13:59.191Z,6.70
2018-11-14T01:16:30.935Z,6.70
2018-11-14T01:19:01.316Z,6.60
2018-11-14T01:21:31.944Z,6.50
2018-11-14T01:24:02.359Z,6.50
2018-11-14T01:26:33.848Z,6.40
2018-11-14T01:29:04.352Z,6.30
2018-11-14T01:31:34.844Z,6.20
2018-11-14T01:34:04.333Z,6.10
2018-11-14T01:36:35.730Z,5.90
2018-11-14T01:39:09.294Z,5.80
2018-11-14T01:41:40.256Z,5.70
2018-11-14T01:44:10.998Z,5.60
2018-11-14T01:46:43.492Z,5.50
2018-11-14T01:49:14.434Z,5.50
2018-11-14T01:51:44.743Z,5.40
2018-11-14T01:54:15.193Z,5.40
2018-11-14T01:56:45.666Z,5.40
2018-11-14T01:59:16.972Z,5.40
2018-11-14T02:01:47.348Z,5.40
2018-11-14T02:04:17.825Z,5.40
2018-11-14T02:06:48.620Z,5.40
2018-11-14T02:09:19.822Z,5.40
2018-11-14T02:11:49.532Z,5.40
2018-11-14T02:14:20.948Z,5.30
2018-11-14T02:16:52.238Z,5.30
2018-11-14T02:19:23.048Z,5.30
2018-11-14T02:21:53.533Z,5.20
2018-11-14T02:24:22.941Z,5.20
2018-11-14T02:26:55.028Z,5.10
2018-11-14T02:29:25.942Z,5.10
2018-11-14T02:31:57.413Z,5.10
2018-11-14T02:34:28.559Z,5.00
2018-11-14T02:36:59.839Z,5.00
2018-11-14T02:39:31.065Z,4.90
2018-11-14T02:42:02.577Z,4.80
2018-11-14T02:44:33.888Z,4.70
2018-11-14T02:47:05.053Z,4.70
2018-11-14T02:49:35.668Z,4.70
2018-11-14T02:52:07.066Z,4.70
2018-11-14T02:54:37.547Z,4.70
2018-11-14T02:57:08.810Z,4.70
2018-11-14T02:59:38.767Z,4.70
2018-11-14T03:02:10.239Z,4.80
2018-11-14T03:04:40.742Z,4.80
2018-11-14T03:07:11.192Z,4.80
2018-11-14T03:09:41.694Z,4.70
2018-11-14T03:12:13.207Z,4.60
2018-11-14T03:14:43.627Z,4.60
2018-11-14T03:17:15.200Z,4.60
2018-11-14T03:19:46.624Z,4.60
2018-11-14T03:22:17.094Z,4.60
2018-11-14T03:24:48.239Z,4.70
2018-11-14T03:27:19.044Z,4.70
2018-11-14T03:29:49.519Z,4.70
2018-11-14T03:32:20.007Z,4.80
2018-11-14T03:34:50.544Z,4.80
2018-11-14T03:37:20.978Z,4.90
2018-11-14T03:39:51.468Z,4.90
2018-11-14T03:42:22.697Z,4.80
2018-11-14T03:44:53.355Z,4.80
2018-11-14T03:47:24.901Z,4.80
2018-11-14T03:49:55.400Z,4.80
2018-11-14T03:52:25.882Z,4.70
2018-11-14T03:54:56.955Z,4.80
2018-11-14T03:57:27.881Z,4.80
2018-11-14T03:59:58.955Z,4.80
2018-11-14T04:02:29.557Z,4.80
2018-11-14T04:05:00.771Z,4.80
2018-11-14T04:07:31.728Z,4.80
2018-11-14T04:10:02.258Z,4.70
2018-11-14T04:12:33.532Z,4.70
2018-11-14T04:15:06.383Z,4.70
2018-11-14T04:17:46.934Z,4.70
2018-11-14T04:20:20.862Z,4.70
2018-11-14T04:22:56.915Z,4.60
2018-11-14T04:28:18.214Z,4.50
2018-11-14T04:30:51.124Z,4.50
2018-11-14T04:33:24.824Z,4.50
2018-11-14T04:35:56.328Z,4.50
2018-11-14T04:38:30.911Z,4.40
2018-11-14T04:41:02.183Z,4.40
2018-11-14T04:43:33.731Z,4.40
2018-11-14T04:46:05.480Z,4.30
2018-11-14T04:48:36.554Z,4.30
2018-11-14T04:51:10.059Z,4.40
2018-11-14T04:53:42.904Z,4.40
2018-11-14T04:56:15.300Z,4.40
2018-11-14T04:58:47.841Z,4.40
2018-11-14T05:01:19.044Z,4.40
2018-11-14T05:03:52.873Z,4.40
2018-11-14T05:06:26.319Z,4.40
2018-11-14T05:08:56.956Z,4.40
2018-11-14T05:11:27.765Z,4.30
2018-11-14T05:13:59.449Z,4.30
2018-11-14T05:16:31.027Z,4.40
2018-11-14T05:19:01.490Z,4.40
2018-11-14T05:21:32.704Z,4.40
2018-11-14T05:24:04.204Z,4.40
2018-11-14T05:26:35.162Z,4.40
2018-11-14T05:29:05.887Z,4.40
2018-11-14T05:31:37.117Z,4.40
2018-11-14T05:37:29.290Z,4.30
2018-11-14T05:40:00.602Z,4.30
2018-11-14T05:42:31.139Z,4.20
2018-11-14T05:45:02.041Z,4.20
2018-11-14T05:47:33.475Z,4.20
2018-11-14T05:50:03.860Z,4.20
2018-11-14T05:52:35.096Z,4.20
2018-11-14T05:55:06.687Z,4.30
2018-11-14T05:57:37.585Z,4.30
2018-11-14T06:00:11.525Z,4.40
2018-11-14T06:02:42.764Z,4.50
2018-11-14T06:05:13.344Z,4.40
2018-11-14T06:07:44.076Z,4.50
2018-11-14T06:10:14.104Z,4.40
2018-11-14T06:12:44.922Z,4.40
2018-11-14T06:15:16.992Z,4.40
2018-11-14T06:17:48.852Z,4.50
2018-11-14T06:20:21.709Z,4.50
2018-11-14T06:22:53.421Z,4.50
2018-11-14T06:25:29.335Z,4.60
2018-11-14T06:28:01.493Z,4.60
2018-11-14T06:30:32.737Z,4.70
2018-11-14T06:33:04.267Z,4.80
2018-11-14T06:35:36.167Z,4.90
2018-11-14T06:38:07.059Z,4.90
2018-11-14T06:40:38.380Z,5.00
2018-11-14T06:43:20.029Z,5.10
2018-11-14T06:56:20.769Z,5.30
2018-11-14T06:58:54.459Z,5.40
2018-11-14T07:01:25.521Z,5.50
2018-11-14T07:04:02.072Z,5.60
2018-11-14T07:06:32.459Z,5.70
2018-11-14T07:09:02.343Z,5.90
2018-11-14T07:11:32.221Z,6.10
2018-11-14T07:14:08.892Z,6.10
2018-11-14T07:16:38.961Z,6.30
2018-11-14T07:19:12.996Z,6.30
2018-11-14T07:21:55.003Z,6.50
2018-11-14T07:24:24.875Z,6.50
2018-11-14T07:26:56.422Z,6.60
2018-11-14T07:29:26.663Z,6.80
2018-11-14T07:31:57.305Z,6.90
2018-11-14T07:34:27.430Z,7.00
2018-11-14T07:36:57.295Z,7.20
2018-11-14T07:39:27.197Z,7.40
2018-11-14T07:41:57.064Z,7.60
2018-11-14T07:44:27.866Z,7.70
2018-11-14T07:46:58.841Z,7.90
2018-11-14T07:49:29.441Z,7.90
2018-11-14T07:52:00.343Z,8.00
2018-11-14T07:54:30.564Z,8.00
2018-11-14T07:57:01.384Z,8.10
2018-11-14T07:59:32.276Z,8.20
2018-11-14T08:02:03.066Z,8.50
2018-11-14T08:04:33.036Z,8.70
2018-11-14T08:07:03.885Z,8.80
2018-11-14T08:09:33.771Z,9.00
2018-11-14T08:12:04.201Z,9.40
2018-11-14T08:14:34.532Z,9.60
2018-11-14T08:17:04.426Z,9.80
2018-11-14T08:19:35.442Z,10.10
2018-11-14T08:22:05.893Z,10.20
2018-11-14T08:24:36.056Z,10.00
2018-11-14T08:27:07.036Z,10.00
2018-11-14T08:29:37.816Z,10.00
2018-11-14T08:32:09.142Z,10.20
2018-11-14T08:34:39.336Z,10.20
2018-11-14T08:37:10.273Z,10.30
2018-11-14T08:39:40.344Z,10.20
2018-11-14T08:42:10.230Z,10.30
2018-11-14T08:44:40.857Z,10.40
2018-11-14T08:47:11.837Z,10.60
2018-11-14T08:49:42.883Z,10.80
2018-11-14T08:52:13.477Z,11.20
2018-11-14T08:54:43.641Z,11.00
2018-11-14T08:57:15.265Z,11.00
2018-11-14T08:59:45.456Z,10.90
2018-11-14T09:02:17.067Z,11.00
2018-11-14T09:04:47.223Z,11.40
2018-11-14T09:07:18.477Z,11.50
2018-11-14T09:09:47.988Z,11.70
2018-11-14T09:12:20.547Z,11.50
2018-11-14T09:14:51.831Z,11.20
2018-11-14T09:17:26.635Z,11.10
2018-11-14T09:19:57.421Z,11.10
2018-11-14T09:22:27.508Z,10.90
2018-11-14T09:24:58.702Z,11.10
2018-11-14T09:27:33.329Z,11.40
2018-11-14T09:30:03.206Z,11.20
2018-11-14T09:32:43.941Z,11.50
2018-11-14T09:35:16.878Z,11.50
2018-11-14T09:37:51.472Z,11.50
2018-11-14T09:40:22.973Z,11.60
2018-11-14T09:42:53.878Z,11.50
2018-11-14T09:45:25.028Z,11.40
2018-11-14T09:47:55.981Z,11.10
2018-11-14T09:50:28.550Z,11.10
2018-11-14T09:53:05.592Z,10.90
2018-11-14T09:55:37.422Z,10.90
2018-11-14T09:58:08.624Z,10.90
2018-11-14T10:00:39.190Z,10.90
2018-11-14T10:03:15.889Z,11.10
2018-11-14T10:05:47.083Z,11.30
2018-11-14T10:08:17.953Z,11.20
2018-11-14T10:10:47.905Z,11.00
2018-11-14T10:13:19.284Z,11.00
2018-11-14T10:15:50.575Z,11.10
2018-11-14T10:18:22.283Z,11.50
2018-11-14T10:20:53.129Z,11.70
2018-11-14T10:23:24.348Z,11.90
2018-11-14T10:25:55.169Z,12.00
2018-11-14T10:28:25.081Z,12.10
2018-11-14T10:30:55.810Z,12.60
2018-11-14T10:33:26.823Z,12.10
2018-11-14T10:35:58.487Z,12.20
2018-11-14T10:38:28.597Z,12.20
2018-11-14T10:40:59.264Z,12.00
2018-11-14T10:43:30.332Z,12.10
2018-11-14T10:46:01.168Z,12.10
2018-11-14T10:48:31.138Z,11.90
2018-11-14T10:51:01.953Z,11.60
2018-11-14T10:53:32.636Z,11.60
2018-11-14T10:56:02.819Z,11.30
2018-11-14T10:58:33.769Z,11.10
2018-11-14T11:01:09.380Z,11.10
2018-11-14T11:03:44.608Z,11.00
2018-11-14T11:06:49.223Z,10.90
2018-11-14T11:09:24.795Z,10.90
2018-11-14T11:11:59.771Z,10.70
2018-11-14T11:14:34.726Z,10.70
2018-11-14T11:17:09.555Z,10.70
2018-11-14T11:19:40.541Z,10.60
2018-11-14T11:22:11.159Z,10.50
2018-11-14T11:24:41.329Z,10.50
2018-11-14T11:27:12.201Z,10.70
2018-11-14T11:29:42.089Z,10.80
2018-11-14T11:32:13.725Z,10.80
2018-11-14T11:34:44.904Z,11.00
2018-11-14T11:37:15.878Z,11.10
2018-11-14T11:39:46.479Z,11.10
2018-11-14T11:42:16.556Z,11.20
2018-11-14T11:44:47.213Z,11.40
2018-11-14T11:47:18.051Z,11.50
2018-11-14T11:49:48.199Z,11.40
2018-11-14T11:52:18.086Z,11.40
2018-11-14T11:54:49.341Z,11.70
2018-11-14T11:57:18.885Z,11.60
2018-11-14T11:59:51.385Z,11.70
2018-11-14T12:02:22.542Z,11.90
2018-11-14T12:04:52.545Z,12.10
2018-11-14T12:07:23.500Z,12.20
2018-11-14T12:09:54.050Z,12.60
2018-11-14T12:12:24.207Z,13.00
2018-11-14T12:14:54.138Z,13.20
2018-11-14T12:17:25.072Z,13.00
2018-11-14T12:19:56.028Z,12.90
2018-11-14T12:22:26.787Z,13.20
2018-11-14T12:24:57.694Z,13.70
2018-11-14T12:27:28.395Z,13.80
2018-11-14T12:29:58.463Z,13.70
2018-11-14T12:32:29.324Z,13.90
2018-11-14T12:34:59.249Z,13.70
2018-11-14T12:37:30.120Z,13.10
2018-11-14T12:40:00.914Z,12.80
2018-11-14T12:42:31.900Z,13.60
2018-11-14T12:45:03.096Z,14.80
2018-11-14T12:47:33.685Z,15.60
2018-11-14T12:50:03.599Z,16.80
2018-11-14T12:52:34.533Z,17.20
2018-11-14T12:55:07.096Z,17.50
2018-11-14T12:57:38.328Z,17.20
2018-11-14T13:00:11.012Z,16.40
2018-11-14T13:02:42.350Z,15.00
2018-11-14T13:05:13.002Z,14.20
2018-11-14T13:07:43.609Z,13.50
2018-11-14T13:10:14.874Z,13.10
2018-11-14T13:12:47.271Z,13.10
2018-11-14T13:15:18.565Z,12.80
2018-11-14T13:17:49.200Z,12.60
2018-11-14T13:20:25.121Z,12.60
2018-11-14T13:22:55.311Z,12.50
2018-11-14T13:25:26.232Z,12.30
2018-11-14T13:27:57.024Z,12.20
2018-11-14T13:30:27.859Z,12.20
2018-11-14T13:32:58.921Z,12.20
2018-11-14T13:35:29.724Z,12.20
2018-11-14T13:38:00.764Z,12.10
2018-11-14T13:40:31.644Z,12.00
2018-11-14T13:43:01.674Z,11.90
2018-11-14T13:45:31.340Z,11.90
2018-11-14T13:48:01.234Z,11.80
2018-11-14T13:50:31.038Z,11.80
2018-11-14T13:53:01.987Z,11.60
2018-11-14T13:55:31.855Z,11.40
2018-11-14T13:58:02.821Z,11.50
2018-11-14T14:00:33.373Z,11.40
2018-11-14T14:03:03.545Z,11.30
2018-11-14T14:05:33.427Z,11.30
2018-11-14T14:08:03.387Z,11.30
2018-11-14T14:10:36.152Z,11.30
2018-11-14T14:13:15.304Z,11.20
2018-11-14T14:15:46.139Z,11.30
2018-11-14T14:18:16.765Z,11.30
2018-11-14T14:23:42.154Z,11.20
2018-11-14T14:26:38.313Z,11.00
2018-11-14T14:29:10.287Z,11.00
2018-11-14T14:31:40.852Z,11.00
2018-11-14T14:34:12.044Z,10.90
2018-11-14T14:36:43.932Z,11.00
2018-11-14T14:39:14.718Z,11.00
2018-11-14T14:41:45.430Z,11.00
2018-11-14T14:44:16.598Z,10.90
2018-11-14T14:46:47.518Z,10.90
2018-11-14T14:49:18.128Z,10.90
2018-11-14T14:51:50.269Z,10.80
2018-11-14T14:54:21.819Z,10.70
2018-11-14T14:56:53.098Z,10.70
2018-11-14T14:59:23.771Z,10.60
2018-11-14T15:01:53.928Z,10.60
2018-11-14T15:04:24.900Z,10.60
2018-11-14T15:06:55.694Z,10.50
2018-11-14T15:09:26.395Z,10.30
2018-11-14T15:11:57.451Z,10.20
2018-11-14T15:14:27.392Z,10.00
2018-11-14T15:16:57.991Z,9.90
2018-11-14T15:35:47.196Z,8.60
2018-11-14T15:38:18.336Z,8.40
2018-11-14T15:40:49.941Z,8.30
2018-11-14T15:46:20.097Z,8.10
2018-11-14T15:48:53.026Z,8.00
2018-11-14T15:51:26.121Z,7.90
2018-11-14T15:53:59.878Z,7.90
2018-11-14T15:56:34.335Z,7.80
2018-11-14T15:59:07.034Z,7.70
2018-11-14T16:01:41.554Z,7.50
2018-11-14T16:04:13.705Z,7.50
2018-11-14T16:09:41.534Z,7.30
2018-11-14T16:12:13.599Z,7.20
2018-11-14T16:14:45.740Z,7.20
2018-11-14T16:17:17.691Z,7.10
2018-11-14T16:19:53.502Z,7.00
2018-11-14T16:26:07.223Z,7.00
2018-11-14T16:31:36.325Z,6.90
2018-11-14T16:34:09.253Z,6.80
2018-11-14T16:36:40.139Z,6.70
2018-11-14T16:42:02.023Z,6.60
2018-11-14T16:44:46.795Z,6.40
2018-11-14T16:47:48.460Z,6.40
2018-11-14T16:50:19.375Z,6.30
2018-11-14T16:52:50.417Z,6.30
2018-11-14T16:55:22.832Z,6.30
2018-11-14T16:57:55.087Z,6.30
2018-11-14T17:00:28.737Z,6.30
2018-11-14T17:03:01.678Z,6.30
2018-11-14T17:05:34.568Z,6.30
2018-11-14T17:08:04.700Z,6.30
2018-11-14T17:10:34.569Z,6.30
2018-11-14T17:13:05.822Z,6.30
2018-11-14T17:15:57.360Z,6.40
2018-11-14T17:18:28.465Z,6.50
2018-11-14T17:20:59.380Z,6.60
2018-11-14T17:23:30.272Z,6.70
2018-11-14T17:26:01.134Z,6.80
2018-11-14T17:28:32.040Z,6.90
2018-11-14T17:31:03.188Z,6.90
2018-11-14T17:35:04.956Z,7.00
2018-11-14T17:37:35.903Z,7.10
2018-11-14T17:40:44.930Z,7.20
2018-11-14T17:43:16.405Z,7.20
2018-11-14T18:11:08.045Z,7.60
2018-11-14T18:13:39.244Z,7.70
2018-11-14T18:16:19.704Z,7.70
2018-11-14T18:18:51.546Z,7.70
2018-11-14T18:21:23.434Z,7.70
2018-11-14T18:23:55.193Z,7.70
2018-11-14T18:30:27.406Z,7.80
2018-11-14T18:33:11.742Z,7.80
2018-11-14T19:02:06.038Z,8.00
2018-11-14T19:07:46.242Z,8.00
2018-11-14T19:10:32.105Z,8.10
2018-11-14T19:13:12.036Z,8.10
2018-11-14T19:27:19.103Z,8.10
2018-11-14T19:53:59.052Z,8.10
2018-11-14T20:12:21.185Z,8.10
2018-11-14T20:32:22.948Z,8.00
2018-11-14T20:34:53.705Z,8.00
2018-11-14T20:37:28.726Z,7.80
2018-11-14T20:39:59.669Z,7.70
2018-11-14T20:42:33.441Z,7.60
2018-11-14T20:45:04.344Z,7.40
2018-11-14T20:47:35.239Z,7.30
2018-11-14T20:50:06.530Z,7.20
2018-11-14T20:52:38.220Z,7.10
2018-11-14T20:55:10.225Z,7.00
2018-11-14T20:57:41.087Z,6.90
2018-11-14T21:00:22.041Z,7.00
2018-11-14T21:02:52.016Z,7.10
2018-11-14T21:05:21.828Z,7.10
2018-11-14T21:07:52.742Z,7.10
2018-11-14T21:10:24.748Z,7.20
2018-11-14T21:12:55.920Z,7.20
2018-11-14T21:15:31.006Z,7.30
2018-11-14T21:18:02.275Z,7.40
2018-11-14T21:20:33.022Z,7.40
2018-11-14T21:23:04.114Z,7.40
2018-11-14T21:25:34.989Z,7.40
2018-11-14T21:28:04.951Z,7.40
2018-11-14T21:30:34.812Z,7.40
2018-11-14T21:33:04.707Z,7.40
2018-11-14T21:35:37.254Z,7.30
2018-11-14T21:38:09.286Z,7.20
2018-11-14T21:40:39.438Z,7.20
2018-11-14T21:43:10.042Z,7.00
2018-11-14T21:45:40.217Z,7.00
2018-11-14T21:48:14.110Z,6.90
2018-11-14T21:50:44.011Z,6.80
2018-11-14T21:53:13.918Z,6.80
2018-11-14T21:55:44.782Z,6.70
2018-11-14T21:58:16.611Z,6.70
2018-11-14T22:00:47.600Z,6.70
2018-11-14T22:03:17.510Z,6.60
2018-11-14T22:05:47.383Z,6.60
2018-11-14T22:08:19.036Z,6.50
2018-11-14T22:10:49.186Z,6.50
2018-11-14T22:13:20.081Z,6.50
2018-11-14T22:15:49.963Z,6.40
2018-11-14T22:18:19.848Z,6.40
2018-11-14T22:20:49.727Z,6.40
2018-11-14T22:23:19.596Z,6.40
2018-11-14T22:25:50.618Z,6.50
2018-11-14T22:28:21.397Z,6.50
2018-11-14T22:30:56.341Z,6.50
2018-11-14T22:33:27.206Z,6.50
2018-11-14T22:35:57.962Z,6.50
2018-11-14T22:38:29.428Z,6.60
2018-11-14T22:41:00.061Z,6.60
2018-11-14T22:43:31.677Z,6.70
2018-11-14T22:46:02.728Z,6.70
2018-11-14T22:48:33.692Z,6.80
2018-11-14T22:51:04.353Z,6.80
2018-11-14T22:53:35.432Z,6.80
2018-11-14T22:56:05.287Z,6.80
2018-11-14T22:58:37.867Z,6.80
2018-11-14T23:01:08.878Z,6.80
2018-11-14T23:03:39.445Z,6.80
2018-11-14T23:06:09.969Z,6.70
2018-11-14T23:08:40.391Z,6.60
2018-11-14T23:11:10.628Z,6.50
2018-11-14T23:13:41.318Z,6.40
2018-11-14T23:16:11.779Z,6.20
2018-11-14T23:18:43.080Z,6.10
2018-11-14T23:21:12.703Z,6.00
2018-11-14T23:23:43.168Z,5.70
2018-11-14T23:26:13.345Z,5.60
2018-11-14T23:28:44.092Z,5.40
2018-11-14T23:31:14.568Z,5.30
2018-11-14T23:33:45.047Z,5.20
2018-11-14T23:36:25.609Z,5.10
2018-11-14T23:38:56.090Z,4.90
2018-11-14T23:41:27.512Z,4.80
2018-11-14T23:43:58.953Z,4.70
2018-11-14T23:46:29.652Z,4.60
2018-11-14T23:49:01.744Z,4.50
2018-11-14T23:51:32.427Z,4.50
2018-11-14T23:54:03.915Z,4.50
2018-11-14T23:56:34.500Z,4.40
2018-11-14T23:59:05.715Z,4.30
